Time;durP1;ratioP1;P1;durP2;ratioP2;P2;SDS_P1;SDS_P2;PMS_P1;PMS_P2;Temp;Humidity;BMP_temperature;BMP_pressure;BME280_temperature;BME280_humidity;BME280_pressure;Samples;Min_cycle;Max_cycle;Signal;HPM_P1;HPM_P2
2022/12/31 00:01:21;;;;;;;207.07;101.67;;;;;;;6.06;100.00;95640.91;5085181;28;20196;-79
2022/12/31 00:03:50;;;;;;;211.53;105.30;;;;;;;6.08;100.00;95649.28;5086945;28;20888;-85
2022/12/31 00:06:23;;;;;;;228.97;112.37;;;;;;;6.22;100.00;95657.13;5091257;28;20230;-86
2022/12/31 00:08:54;;;;;;;224.00;109.33;;;;;;;6.27;100.00;95647.13;5090205;28;20188;-85
2022/12/31 00:11:37;;;;;;;;;;;;;;;;;;;;;
2022/12/31 00:14:08;;;;;;;164.50;81.07;;;;;;;6.15;100.00;95625.22;5086989;28;20782;-82
2022/12/31 00:17:08;;;;;;;158.00;77.93;;;;;;;6.22;100.00;95643.44;5087034;28;20659;-83
2022/12/31 00:19:40;;;;;;;143.43;71.77;;;;;;;6.15;100.00;95645.03;5084238;28;20273;-83
2022/12/31 00:22:07;;;;;;;142.90;67.53;;;;;;;6.16;100.00;95654.41;5087302;28;20196;-82
2022/12/31 00:24:36;;;;;;;133.77;65.13;;;;;;;6.16;100.00;95651.84;5085240;28;20196;-82
2022/12/31 00:27:07;;;;;;;154.13;75.43;;;;;;;6.08;100.00;95649.28;5086200;28;20216;-82
2022/12/31 00:29:35;;;;;;;159.50;78.60;;;;;;;6.01;100.00;95649.13;5088295;28;20583;-83
2022/12/31 00:32:02;;;;;;;147.57;70.27;;;;;;;6.12;100.00;95653.13;5085653;28;20192;-82
2022/12/31 00:34:36;;;;;;;139.40;67.83;;;;;;;6.12;100.00;95666.03;5087387;28;20197;-83
2022/12/31 00:37:09;;;;;;;135.60;68.47;;;;;;;6.12;100.00;95674.56;5085151;28;20252;-83
2022/12/31 00:39:36;;;;;;;136.07;68.50;;;;;;;6.17;100.00;95668.94;5085590;28;20663;-82
2022/12/31 00:42:06;;;;;;;141.37;70.77;;;;;;;6.17;100.00;95674.09;5088637;28;20283;-82
2022/12/31 00:44:36;;;;;;;141.00;71.47;;;;;;;6.21;100.00;95670.19;5084802;28;20196;-82
2022/12/31 00:47:09;;;;;;;146.97;69.53;;;;;;;6.35;100.00;95679.81;5084208;28;20348;-81
2022/12/31 00:49:36;;;;;;;144.40;70.73;;;;;;;6.35;100.00;95681.63;5084819;28;20269;-80
2022/12/31 00:52:03;;;;;;;135.47;70.10;;;;;;;6.41;100.00;95680.94;5086608;28;20203;-81
2022/12/31 00:54:38;;;;;;;133.67;65.87;;;;;;;6.33;100.00;95668.06;5083118;28;20189;-81
2022/12/31 00:57:05;;;;;;;154.67;71.80;;;;;;;6.32;100.00;95687.91;5082803;28;20207;-81
2022/12/31 00:59:44;;;;;;;144.13;70.13;;;;;;;6.37;100.00;95684.84;5084475;28;20667;-82
2022/12/31 01:02:19;;;;;;;138.90;67.53;;;;;;;6.38;100.00;95689.81;5077949;28;20196;-81
2022/12/31 01:04:58;;;;;;;128.87;64.83;;;;;;;6.32;100.00;95687.91;5086243;28;20211;-81
2022/12/31 01:07:27;;;;;;;124.77;62.83;;;;;;;6.40;100.00;95695.66;5079117;28;20231;-81
2022/12/31 01:11:17;;;;;;;121.43;59.57;;;;;;;6.43;100.00;95699.66;5082088;28;20550;-81
2022/12/31 01:13:00;;;;;;;125.40;59.00;;;;;;;6.42;100.00;95693.69;5082941;28;20269;-81
2022/12/31 01:15:27;;;;;;;103.33;51.30;;;;;;;6.46;100.00;95699.34;5082544;28;20195;-80
2022/12/31 01:17:57;;;;;;;106.73;54.07;;;;;;;6.45;100.00;95697.72;5086767;28;20204;-81
2022/12/31 01:23:27;;;;;;;101.80;51.67;;;;;;;6.47;100.00;95709.47;5083543;28;20208;-80
2022/12/31 01:26:08;;;;;;;110.60;53.23;;;;;;;6.41;100.00;95684.31;5083684;28;20552;-81
2022/12/31 01:28:42;;;;;;;97.10;49.20;;;;;;;6.52;100.00;95709.00;5086411;28;20896;-81
2022/12/31 01:31:19;;;;;;;102.60;49.40;;;;;;;6.41;100.00;95702.41;5085576;28;20192;-81
2022/12/31 01:33:50;;;;;;;101.60;51.40;;;;;;;6.45;100.00;95710.63;5081002;28;20742;-80
2022/12/31 01:36:47;;;;;;;99.63;53.03;;;;;;;5.94;100.00;95647.38;5085268;28;20281;-80
2022/12/31 01:39:19;;;;;;;110.77;54.43;;;;;;;6.27;100.00;95703.09;5087777;28;20196;-81
2022/12/31 01:41:48;;;;;;;113.83;56.60;;;;;;;6.18;100.00;95716.97;5083013;28;20286;-80
2022/12/31 01:44:50;;;;;;;115.40;58.13;;;;;;;6.18;100.00;95709.22;5081237;28;20212;-80
2022/12/31 01:47:21;;;;;;;116.50;56.83;;;;;;;6.03;100.00;95701.34;5084344;28;20589;-80
2022/12/31 01:49:52;;;;;;;114.20;57.53;;;;;;;6.00;100.00;95714.59;5087490;28;20212;-80
2022/12/31 01:52:22;;;;;;;112.43;57.17;;;;;;;5.90;100.00;95690.75;5083721;28;20199;-80
2022/12/31 01:54:54;;;;;;;114.10;56.23;;;;;;;6.00;100.00;95719.75;5085990;28;20204;-80
2022/12/31 01:57:24;;;;;;;105.67;55.33;;;;;;;5.91;100.00;95719.94;5086344;28;20196;-80
2022/12/31 01:59:53;;;;;;;113.73;56.63;;;;;;;5.85;100.00;95725.72;5086209;28;20658;-80
2022/12/31 02:02:20;;;;;;;114.77;56.50;;;;;;;5.86;100.00;95722.19;5085573;28;20624;-80
2022/12/31 02:04:48;;;;;;;109.80;56.93;;;;;;;5.84;100.00;95724.09;5085262;28;20715;-80
2022/12/31 02:07:15;;;;;;;114.43;57.37;;;;;;;5.91;100.00;95722.53;5080862;28;20219;-78
2022/12/31 02:09:42;;;;;;;112.73;58.73;;;;;;;5.87;100.00;95732.34;5081312;28;20200;-77
2022/12/31 02:12:10;;;;;;;120.43;57.93;;;;;;;5.96;100.00;95731.38;5081885;28;20202;-77
2022/12/31 02:14:41;;;;;;;115.20;58.63;;;;;;;5.92;100.00;95726.69;5079011;28;20196;-77
2022/12/31 02:17:17;;;;;;;138.43;66.50;;;;;;;5.87;100.00;95728.97;5079983;28;20697;-77
2022/12/31 02:20:19;;;;;;;140.70;67.47;;;;;;;5.80;100.00;95735.72;5079975;28;20199;-77
2022/12/31 02:23:10;;;;;;;130.80;64.07;;;;;;;5.73;100.00;95728.63;5075260;28;20251;-77
2022/12/31 02:25:52;;;;;;;131.43;64.53;;;;;;;5.72;100.00;95721.84;5077966;28;20756;-76
2022/12/31 02:28:38;;;;;;;130.43;61.80;;;;;;;5.74;100.00;95724.28;5077116;28;20232;-77
2022/12/31 02:31:11;;;;;;;123.33;62.50;;;;;;;5.74;100.00;95737.94;5081327;28;20196;-77
2022/12/31 02:33:44;;;;;;;127.07;63.47;;;;;;;5.74;100.00;95737.94;5077155;28;20238;-76
2022/12/31 02:36:17;;;;;;;124.97;64.17;;;;;;;5.81;100.00;95745.84;5081108;28;20195;-77
2022/12/31 02:38:47;;;;;;;125.83;63.30;;;;;;;5.86;100.00;95741.03;5080251;28;20622;-77
2022/12/31 02:41:48;;;;;;;123.17;61.90;;;;;;;5.77;100.00;95733.47;5079250;28;20196;-79
2022/12/31 02:44:02;;;;;;;116.10;60.50;;;;;;;5.78;100.00;95743.59;5079234;28;20666;-77
2022/12/31 02:46:41;;;;;;;118.40;61.30;;;;;;;5.71;100.00;95748.59;5081122;28;20281;-77
2022/12/31 02:49:16;;;;;;;127.83;61.93;;;;;;;5.67;100.00;95749.91;5079588;28;20204;-77
2022/12/31 02:51:51;;;;;;;129.47;62.40;;;;;;;5.56;100.00;95739.91;5081130;28;20265;-76
2022/12/31 02:54:28;;;;;;;124.63;60.30;;;;;;;5.55;100.00;95746.00;5079779;28;20203;-77
2022/12/31 02:57:05;;;;;;;126.43;61.57;;;;;;;5.51;100.00;95744.69;5079042;28;20184;-77
2022/12/31 03:02:28;;;;;;;119.93;60.23;;;;;;;5.43;100.00;95743.88;5076595;28;20200;-77
2022/12/31 03:04:57;;;;;;;135.10;64.50;;;;;;;5.46;100.00;95741.81;5086070;28;20187;-78
2022/12/31 03:07:26;;;;;;;124.70;61.67;;;;;;;5.43;100.00;95741.31;5081342;28;20223;-77
2022/12/31 03:09:53;;;;;;;128.87;61.13;;;;;;;5.37;100.00;95736.81;5082646;28;20214;-77
2022/12/31 03:15:18;;;;;;;118.07;61.30;;;;;;;5.26;100.00;95731.94;5079385;28;20194;-77
2022/12/31 03:17:50;;;;;;;125.50;63.20;;;;;;;5.20;100.00;95724.84;5080587;28;20662;-79
2022/12/31 03:23:05;;;;;;;134.73;66.47;;;;;;;5.01;100.00;95723.38;5082406;28;20198;-80
2022/12/31 03:25:34;;;;;;;124.67;65.23;;;;;;;5.04;100.00;95723.88;5076938;28;20792;-78
2022/12/31 03:28:02;;;;;;;125.40;66.37;;;;;;;5.08;100.00;95724.34;5084284;28;20341;-78
2022/12/31 03:30:30;;;;;;;138.63;68.43;;;;;;;5.07;100.00;95730.47;5085173;28;20193;-78
2022/12/31 03:32:59;;;;;;;130.20;66.30;;;;;;;5.08;100.00;95740.59;5082220;28;20231;-79
2022/12/31 03:35:28;;;;;;;131.87;67.57;;;;;;;5.03;100.00;95734.31;5088066;28;20215;-79
2022/12/31 03:37:56;;;;;;;138.73;66.83;;;;;;;4.92;100.00;95729.47;5080591;28;20612;-79
2022/12/31 03:40:25;;;;;;;160.03;79.63;;;;;;;4.93;100.00;95733.66;5084592;28;20250;-79
2022/12/31 03:42:52;;;;;;;153.70;82.30;;;;;;;4.73;100.00;95720.22;5088999;28;20205;-78
2022/12/31 03:45:19;;;;;;;139.03;72.10;;;;;;;4.82;100.00;95732.16;5086776;28;20188;-79
2022/12/31 03:47:46;;;;;;;152.30;74.97;;;;;;;4.78;100.00;95743.75;5080511;28;20231;-78
2022/12/31 03:50:16;;;;;;;147.47;76.63;;;;;;;4.73;100.00;95738.25;5081195;28;20201;-76
2022/12/31 03:52:44;;;;;;;143.93;76.83;;;;;;;4.74;100.00;95741.63;5087253;28;20202;-76
2022/12/31 03:55:11;;;;;;;148.03;78.73;;;;;;;4.72;100.00;95746.13;5086173;28;20202;-79
2022/12/31 03:57:39;;;;;;;160.33;84.20;;;;;;;4.69;100.00;95743.84;5082316;28;20209;-77
2022/12/31 04:00:08;;;;;;;162.20;89.33;;;;;;;4.72;100.00;95749.50;5089330;28;20196;-76
2022/12/31 04:02:34;;;;;;;171.53;91.07;;;;;;;4.59;100.00;95736.25;5082778;28;20201;-78
2022/12/31 04:05:01;;;;;;;171.77;89.33;;;;;;;4.52;100.00;95738.66;5086077;28;20204;-77
2022/12/31 04:07:30;;;;;;;172.80;91.73;;;;;;;4.47;100.00;95743.44;5081753;28;20579;-76
2022/12/31 04:09:57;;;;;;;169.27;91.27;;;;;;;4.55;100.00;95748.63;5081623;28;20198;-78
2022/12/31 04:12:24;;;;;;;164.47;88.83;;;;;;;4.47;100.00;95755.50;5087270;28;20201;-78
2022/12/31 04:14:51;;;;;;;168.53;87.47;;;;;;;4.44;100.00;95763.53;5088578;28;20185;-79
2022/12/31 04:17:18;;;;;;;143.63;75.97;;;;;;;4.41;100.00;95762.09;5087740;28;20202;-80
2022/12/31 04:19:44;;;;;;;146.47;76.60;;;;;;;4.54;100.00;95754.72;5088510;28;20590;-79
2022/12/31 04:22:11;;;;;;;161.87;81.70;;;;;;;4.63;100.00;95762.50;5087273;28;20204;-79
2022/12/31 04:24:40;;;;;;;157.83;76.63;;;;;;;4.43;100.00;95743.91;5086221;28;20198;-79
2022/12/31 04:27:06;;;;;;;135.90;73.80;;;;;;;4.47;100.00;95756.28;5088040;28;20199;-78
2022/12/31 04:29:33;;;;;;;159.20;81.47;;;;;;;4.47;100.00;95753.72;5087389;28;20217;-79
2022/12/31 04:32:00;;;;;;;134.47;72.90;;;;;;;4.36;100.00;95751.41;5085109;28;20194;-79
2022/12/31 04:34:27;;;;;;;146.27;74.43;;;;;;;4.40;100.00;95755.31;5083272;28;20217;-77
2022/12/31 04:36:54;;;;;;;131.93;68.37;;;;;;;4.47;100.00;95765.81;5085012;28;20195;-77
2022/12/31 04:39:20;;;;;;;138.93;68.80;;;;;;;4.48;100.00;95770.78;5085321;28;20191;-79
2022/12/31 04:41:49;;;;;;;143.23;75.60;;;;;;;4.54;100.00;95771.94;5083605;28;20193;-76
2022/12/31 04:44:16;;;;;;;146.97;75.23;;;;;;;4.53;100.00;95775.50;5085652;28;20192;-78
2022/12/31 04:46:42;;;;;;;151.00;77.67;;;;;;;4.49;100.00;95779.31;5083641;28;20205;-78
2022/12/31 04:49:10;;;;;;;140.30;74.57;;;;;;;4.48;100.00;95782.84;5084196;28;20270;-78
2022/12/31 04:51:37;;;;;;;149.57;75.63;;;;;;;4.44;100.00;95777.19;5086077;28;20582;-78
2022/12/31 04:54:04;;;;;;;158.23;81.63;;;;;;;4.41;100.00;95784.44;5083825;28;20192;-78
2022/12/31 04:56:31;;;;;;;152.77;76.80;;;;;;;4.27;100.00;95775.47;5082400;28;20212;-78
2022/12/31 04:58:59;;;;;;;149.87;78.97;;;;;;;4.20;100.00;95778.81;5082593;28;20197;-78
2022/12/31 05:01:26;;;;;;;151.63;78.20;;;;;;;4.12;100.00;95783.91;5085033;28;20218;-79
2022/12/31 05:03:53;;;;;;;156.03;78.30;;;;;;;4.12;100.00;95789.06;5082375;28;20198;-80
2022/12/31 05:06:22;;;;;;;152.77;77.20;;;;;;;4.09;100.00;95786.78;5084462;28;20200;-78
2022/12/31 05:08:50;;;;;;;152.50;77.93;;;;;;;4.13;100.00;95796.59;5085842;28;20241;-79
2022/12/31 05:11:17;;;;;;;149.27;77.50;;;;;;;4.16;100.00;95796.31;5082861;28;20201;-79
2022/12/31 05:13:44;;;;;;;154.03;77.37;;;;;;;4.10;100.00;95804.63;5085000;28;20200;-79
2022/12/31 05:16:12;;;;;;;154.33;81.60;;;;;;;4.13;100.00;95803.53;5084693;28;20185;-79
2022/12/31 05:18:39;;;;;;;163.87;82.53;;;;;;;4.06;100.00;95813.63;5084830;28;20193;-79
2022/12/31 05:21:06;;;;;;;163.67;82.97;;;;;;;4.01;100.00;95806.31;5089987;28;20719;-78
2022/12/31 05:23:34;;;;;;;159.93;83.83;;;;;;;4.11;100.00;95815.72;5080535;28;20205;-79
2022/12/31 05:26:01;;;;;;;161.90;84.93;;;;;;;4.06;100.00;95820.50;5083533;28;20193;-78
2022/12/31 05:28:28;;;;;;;175.60;87.63;;;;;;;4.01;100.00;95824.31;5085089;28;20214;-79
2022/12/31 05:30:55;;;;;;;173.23;89.40;;;;;;;4.09;100.00;95820.22;5086040;28;20686;-83
2022/12/31 05:33:23;;;;;;;164.20;87.53;;;;;;;4.05;100.00;95818.88;5084163;28;20220;-79
2022/12/31 05:35:50;;;;;;;173.87;89.53;;;;;;;4.06;100.00;95826.47;5084728;28;20259;-78
2022/12/31 05:38:17;;;;;;;170.80;86.03;;;;;;;4.05;100.00;95835.13;5084795;28;20193;-79
2022/12/31 05:40:44;;;;;;;173.33;88.57;;;;;;;3.96;100.00;95833.44;5083416;28;20212;-77
2022/12/31 05:43:11;;;;;;;183.30;92.07;;;;;;;3.92;100.00;95830.38;5086615;28;21603;-76
2022/12/31 05:45:38;;;;;;;182.20;100.17;;;;;;;3.87;100.00;95819.72;5079775;28;20193;-76
2022/12/31 05:48:05;;;;;;;211.40;103.57;;;;;;;3.77;100.00;95828.47;5080701;28;20196;-77
2022/12/31 05:50:33;;;;;;;204.53;107.33;;;;;;;3.72;100.00;95836.59;5080887;28;20208;-77
2022/12/31 05:53:00;;;;;;;215.47;113.50;;;;;;;3.73;100.00;95835.66;5083473;28;20199;-77
2022/12/31 05:55:27;;;;;;;214.17;113.97;;;;;;;3.75;100.00;95838.09;5081598;28;20192;-77
2022/12/31 05:57:54;;;;;;;229.97;121.53;;;;;;;3.77;100.00;95834.41;5087173;28;20192;-78
2022/12/31 06:00:21;;;;;;;230.17;125.20;;;;;;;3.70;100.00;95832.56;5084051;28;20192;-78
2022/12/31 06:02:48;;;;;;;238.97;124.70;;;;;;;3.70;100.00;95840.28;5085017;28;20194;-78
2022/12/31 06:05:14;;;;;;;216.43;118.53;;;;;;;3.74;100.00;95845.00;5083065;28;20207;-78
2022/12/31 06:07:43;;;;;;;216.97;112.10;;;;;;;3.76;100.00;95839.69;5082747;28;20189;-78
2022/12/31 06:10:10;;;;;;;224.40;114.00;;;;;;;3.76;100.00;95844.84;5083993;28;20578;-78
2022/12/31 06:12:36;;;;;;;227.97;115.23;;;;;;;3.78;100.00;95851.44;5082782;28;20565;-77
2022/12/31 06:15:04;;;;;;;232.80;118.27;;;;;;;3.76;100.00;95842.25;5084684;28;20193;-77
2022/12/31 06:17:31;;;;;;;232.70;117.60;;;;;;;3.72;100.00;95843.53;5084475;28;20675;-79
2022/12/31 06:19:59;;;;;;;265.93;127.93;;;;;;;3.65;100.00;95857.91;5079870;28;20197;-78
2022/12/31 06:22:26;;;;;;;255.77;126.00;;;;;;;3.69;100.00;95859.25;5083166;28;20718;-77
2022/12/31 06:24:54;;;;;;;248.37;125.20;;;;;;;3.74;100.00;95857.03;5084146;28;20218;-77
2022/12/31 06:27:21;;;;;;;262.23;130.60;;;;;;;3.76;100.00;95855.94;5087076;28;20198;-78
2022/12/31 06:29:49;;;;;;;285.07;144.27;;;;;;;3.74;100.00;95860.41;5080595;28;20487;-76
2022/12/31 06:32:16;;;;;;;271.90;137.83;;;;;;;3.75;100.00;95863.81;5081268;28;20985;-78
2022/12/31 06:34:43;;;;;;;284.53;143.50;;;;;;;3.75;100.00;95866.38;5082193;28;20200;-77
2022/12/31 06:37:10;;;;;;;356.10;174.23;;;;;;;3.71;100.00;95878.69;5081845;28;20581;-79
2022/12/31 06:39:37;;;;;;;411.53;206.17;;;;;;;3.74;100.00;95875.84;5079306;28;20216;-78
2022/12/31 06:42:06;;;;;;;380.10;189.33;;;;;;;3.78;100.00;95879.72;5082228;28;20191;-78
2022/12/31 06:44:32;;;;;;;369.37;177.00;;;;;;;3.75;100.00;95884.38;5082881;28;20189;-77
2022/12/31 06:46:59;;;;;;;356.63;175.23;;;;;;;3.75;100.00;95869.72;5079883;28;20196;-78
2022/12/31 06:49:26;;;;;;;365.30;183.90;;;;;;;3.96;100.00;95888.25;5079871;28;20200;-78
2022/12/31 06:51:53;;;;;;;378.43;198.27;;;;;;;3.92;100.00;95878.44;5084833;28;20189;-78
2022/12/31 06:54:20;;;;;;;381.30;194.63;;;;;;;4.03;100.00;95893.63;5082083;28;20549;-77
2022/12/31 06:56:50;;;;;;;375.03;193.13;;;;;;;4.12;100.00;95887.59;5088972;28;20230;-76
2022/12/31 06:59:28;;;;;;;393.07;198.57;;;;;;;4.13;100.00;95899.50;5088097;28;20216;-77
2022/12/31 07:02:11;;;;;;;390.00;199.13;;;;;;;4.13;100.00;95906.44;5087197;28;20601;-77
2022/12/31 07:05:04;;;;;;;361.43;186.57;;;;;;;4.14;100.00;95902.88;5089754;28;21334;-77
2022/12/31 07:07:46;;;;;;;389.90;215.67;;;;;;;4.14;100.00;95903.69;5089657;28;20197;-77
2022/12/31 07:10:21;;;;;;;362.53;199.17;;;;;;;4.17;100.00;95905.97;5092854;28;20185;-72
2022/12/31 07:13:17;;;;;;;354.93;191.70;;;;;;;4.14;100.00;95913.16;5089317;28;20203;-72
2022/12/31 07:15:55;;;;;;;357.80;193.50;;;;;;;4.20;100.00;95908.25;5087663;28;20193;-74
2022/12/31 07:18:36;;;;;;;364.53;188.90;;;;;;;4.32;100.00;95919.94;5098131;28;20253;-74
2022/12/31 07:21:04;;;;;;;336.30;180.83;;;;;;;4.38;100.00;95918.53;5090932;28;20180;-73
2022/12/31 07:23:31;;;;;;;315.27;166.37;;;;;;;4.42;100.00;95915.50;5089421;28;20202;-79
2022/12/31 07:26:09;;;;;;;288.67;164.53;;;;;;;4.51;100.00;95919.75;5096731;28;20656;-79
2022/12/31 07:28:48;;;;;;;305.57;162.40;;;;;;;4.61;100.00;95927.41;5095649;28;20333;-77
2022/12/31 07:31:27;;;;;;;312.83;171.50;;;;;;;4.61;100.00;95919.69;5090365;28;20207;-80
2022/12/31 07:34:00;;;;;;;293.23;166.17;;;;;;;4.68;100.00;95922.44;5087315;28;20235;-73
2022/12/31 07:36:53;;;;;;;287.03;154.77;;;;;;;4.77;100.00;95930.09;5087443;28;20182;-75
2022/12/31 07:39:27;;;;;;;290.43;157.70;;;;;;;4.79;100.00;95935.88;5087307;28;20806;-75
2022/12/31 07:42:02;;;;;;;274.80;147.90;;;;;;;4.91;100.00;95928.72;5090972;28;20660;-74
2022/12/31 07:44:39;;;;;;;279.43;153.07;;;;;;;4.90;100.00;95930.50;5089404;28;20671;-75
2022/12/31 07:47:19;;;;;;;289.30;146.77;;;;;;;4.91;100.00;95929.53;5094296;28;20185;-75
2022/12/31 07:49:47;;;;;;;264.33;139.03;;;;;;;5.01;100.00;95926.88;5086724;28;20201;-75
2022/12/31 07:52:15;;;;;;;244.23;132.47;;;;;;;5.13;100.00;95934.19;5091134;28;20196;-75
2022/12/31 07:54:42;;;;;;;249.83;135.27;;;;;;;5.23;100.00;95940.97;5090606;28;20189;-75
2022/12/31 07:57:10;;;;;;;218.37;122.53;;;;;;;5.25;100.00;95939.91;5091573;28;20222;-75
2022/12/31 07:59:51;;;;;;;217.70;117.93;;;;;;;5.37;100.00;95941.22;5088683;28;21538;-74
2022/12/31 08:02:39;;;;;;;205.63;112.27;;;;;;;5.42;100.00;95941.59;5085073;28;20206;-75
2022/12/31 08:05:14;;;;;;;203.93;112.93;;;;;;;5.52;100.00;95946.59;5082409;28;20193;-75
2022/12/31 08:07:51;;;;;;;195.23;106.30;;;;;;;5.51;100.00;95943.22;5091425;28;20209;-82
2022/12/31 08:10:26;;;;;;;179.57;97.80;;;;;;;5.58;100.00;95933.91;5090197;28;20191;-79
2022/12/31 08:12:58;;;;;;;167.87;89.93;;;;;;;5.68;100.00;95929.41;5084167;28;20194;-74
2022/12/31 08:15:25;;;;;;;141.97;79.47;;;;;;;5.74;100.00;95944.28;5083841;28;20188;-74
2022/12/31 08:17:54;;;;;;;122.17;66.57;;;;;;;5.84;100.00;95936.41;5084996;28;20220;-74
2022/12/31 08:20:21;;;;;;;116.73;59.70;;;;;;;5.92;100.00;95933.06;5086421;28;20228;-74
2022/12/31 08:23:15;;;;;;;100.73;55.73;;;;;;;6.08;100.00;95943.44;5083066;28;20200;-75
2022/12/31 08:25:58;;;;;;;101.93;54.80;;;;;;;6.14;100.00;95942.81;5080968;28;20193;-76
2022/12/31 08:28:36;;;;;;;113.23;57.00;;;;;;;6.18;100.00;95950.06;5082365;28;20192;-76
2022/12/31 08:31:08;;;;;;;107.93;59.23;;;;;;;6.26;100.00;95951.88;5083802;28;20208;-74
2022/12/31 08:33:47;;;;;;;109.30;58.13;;;;;;;6.40;100.00;95947.84;5083985;28;20230;-75
2022/12/31 08:36:25;;;;;;;110.67;59.43;;;;;;;6.41;100.00;95947.66;5083669;28;20189;-74
2022/12/31 08:39:00;;;;;;;103.50;52.23;;;;;;;6.42;100.00;95951.06;5083129;28;20204;-74
2022/12/31 08:41:31;;;;;;;93.73;52.23;;;;;;;6.55;100.00;95961.75;5083606;28;20194;-75
2022/12/31 08:44:10;;;;;;;97.30;53.07;;;;;;;6.63;100.00;95947.06;5082754;28;20192;-75
2022/12/31 08:46:45;;;;;;;102.07;53.87;;;;;;;6.74;100.00;95951.09;5084928;28;20545;-72
2022/12/31 08:49:14;;;;;;;96.73;52.87;;;;;;;6.78;100.00;95942.84;5082664;28;21613;-73
2022/12/31 08:51:41;;;;;;;95.87;52.80;;;;;;;6.93;100.00;95942.97;5080909;28;20739;-77
2022/12/31 08:54:11;;;;;;;100.93;53.87;;;;;;;6.96;100.00;95945.25;5084040;28;20872;-74
2022/12/31 08:56:46;;;;;;;97.73;53.67;;;;;;;7.07;100.00;95934.56;5079591;28;20216;-73
2022/12/31 08:59:27;;;;;;;98.90;55.83;;;;;;;7.23;100.00;95944.88;5083502;28;20203;-75
2022/12/31 09:02:26;;;;;;;109.10;53.77;;;;;;;7.32;100.00;95946.47;5078537;28;20968;-74
2022/12/31 09:05:02;;;;;;;86.13;48.97;;;;;;;7.35;100.00;95940.16;5082212;28;20304;-75
2022/12/31 09:07:35;;;;;;;82.30;49.13;;;;;;;7.43;100.00;95932.38;5081153;28;20196;-75
2022/12/31 09:10:14;;;;;;;92.90;49.60;;;;;;;7.52;100.00;95935.75;5079026;28;20192;-75
2022/12/31 09:12:52;;;;;;;86.17;45.57;;;;;;;7.44;100.00;95921.06;5075579;28;20293;-75
2022/12/31 09:15:25;;;;;;;84.97;45.53;;;;;;;7.66;99.81;95933.25;5083087;28;20199;-76
2022/12/31 09:17:53;;;;;;;80.23;43.87;;;;;;;7.68;99.97;95935.66;5078776;28;20655;-77
2022/12/31 09:20:25;;;;;;;78.07;44.67;;;;;;;7.71;100.00;95937.91;5079426;28;20216;-76
2022/12/31 09:22:54;;;;;;;74.77;44.47;;;;;;;7.84;98.50;95928.66;5084436;28;20300;-82
2022/12/31 09:25:24;;;;;;;78.50;43.10;;;;;;;7.86;99.14;95928.47;5085441;28;20650;-77
2022/12/31 09:28:02;;;;;;;67.57;40.83;;;;;;;7.95;98.74;95919.69;5083224;28;20749;-75
2022/12/31 09:30:38;;;;;;;76.07;42.80;;;;;;;8.04;97.53;95923.06;5078900;28;20246;-76
2022/12/31 09:33:11;;;;;;;73.13;42.67;;;;;;;8.13;97.29;95916.84;5078127;28;20217;-75
2022/12/31 09:35:46;;;;;;;71.70;41.00;;;;;;;8.16;97.23;95908.75;5081962;28;20207;-87
2022/12/31 09:38:18;;;;;;;75.10;40.70;;;;;;;8.21;97.22;95902.06;5079240;28;20284;-75
2022/12/31 09:41:04;;;;;;;70.07;39.40;;;;;;;8.33;96.66;95898.13;5083286;28;20588;-75
2022/12/31 09:44:07;;;;;;;65.47;39.10;;;;;;;8.41;95.89;95887.72;5079947;28;20224;-77
2022/12/31 09:46:58;;;;;;;69.23;40.27;;;;;;;8.46;96.36;95892.34;5080407;28;20185;-80
2022/12/31 09:50:01;;;;;;;74.13;40.60;;;;;;;8.54;94.83;95882.72;5081899;28;20201;-74
2022/12/31 09:52:41;;;;;;;71.13;40.57;;;;;;;8.56;94.60;95882.56;5079689;28;20203;-77
2022/12/31 09:55:35;;;;;;;67.43;38.63;;;;;;;8.63;94.70;95875.69;5081446;28;20181;-80
2022/12/31 09:58:12;;;;;;;66.40;38.00;;;;;;;8.90;93.81;95876.91;5080318;28;20204;-80
2022/12/31 10:00:44;;;;;;;82.73;43.93;;;;;;;9.78;93.13;95879.47;5084775;28;20240;-79
2022/12/31 10:03:36;;;;;;;81.60;44.70;;;;;;;11.49;83.83;95882.50;5083372;28;20199;-79
2022/12/31 10:06:17;;;;;;;82.87;46.37;;;;;;;13.81;73.82;95894.56;5084872;28;20181;-79
2022/12/31 10:09:19;;;;;;;80.10;47.60;;;;;;;16.09;64.70;95889.50;5077981;28;21517;-80
2022/12/31 10:12:16;;;;;;;85.40;48.17;;;;;;;17.60;58.12;95888.00;5082028;28;20192;-78
2022/12/31 10:15:01;;;;;;;77.07;47.80;;;;;;;18.84;53.84;95899.56;5083590;28;20198;-81
2022/12/31 10:17:43;;;;;;;71.77;44.93;;;;;;;19.61;51.40;95898.69;5086061;28;20601;-78
2022/12/31 10:20:40;;;;;;;74.67;45.93;;;;;;;20.03;49.48;95891.00;5083544;28;20753;-82
2022/12/31 10:23:48;;;;;;;71.57;43.83;;;;;;;20.75;47.85;95888.91;5084598;28;20200;-80
2022/12/31 10:26:49;;;;;;;66.07;40.83;;;;;;;21.57;45.99;95887.69;5077460;28;20185;-82
2022/12/31 10:29:25;;;;;;;60.03;39.20;;;;;;;21.89;43.32;95883.13;5074525;28;20204;-81
2022/12/31 10:32:09;;;;;;;57.05;37.40;;;;;;;22.57;42.22;95888.09;5082969;28;20176;-82
2022/12/31 10:34:52;;;;;;;58.17;38.22;;;;;;;23.33;39.62;95890.81;5081434;28;20193;-84
2022/12/31 10:37:23;;;;;;;58.88;37.17;;;;;;;23.60;39.49;95894.00;5083711;28;20185;-77
2022/12/31 10:40:00;;;;;;;57.25;38.67;;;;;;;24.35;37.59;95894.81;5078810;28;20648;-77
2022/12/31 10:42:47;;;;;;;56.10;35.25;;;;;;;24.46;36.05;95893.69;5080007;28;20192;-77
2022/12/31 10:45:59;;;;;;;48.67;33.55;;;;;;;24.33;36.51;95898.81;5080753;28;20188;-75
2022/12/31 10:49:09;;;;;;;53.05;34.30;;;;;;;24.91;35.32;95891.81;5076241;28;20192;-75
2022/12/31 10:52:05;;;;;;;53.42;35.38;;;;;;;25.06;34.83;95889.06;5077946;28;20678;-76
2022/12/31 10:55:23;;;;;;;47.58;33.15;;;;;;;25.12;34.07;95888.75;5077131;28;21103;-77
2022/12/31 10:58:21;;;;;;;55.85;35.00;;;;;;;25.37;33.66;95890.38;5078860;28;20617;-76
2022/12/31 11:00:56;;;;;;;45.85;33.60;;;;;;;25.47;32.86;95889.50;5079384;28;20216;-75
2022/12/31 11:04:02;;;;;;;49.92;34.80;;;;;;;25.29;32.78;95889.13;5076345;28;20196;-76
2022/12/31 11:07:04;;;;;;;48.63;35.90;;;;;;;25.09;33.38;95886.66;5076555;28;20192;-77
2022/12/31 11:09:53;;;;;;;54.65;34.38;;;;;;;24.67;34.54;95878.41;5039211;28;20196;-76
2022/12/31 11:12:55;;;;;;;52.35;35.95;;;;;;;24.68;33.92;95874.66;5075340;28;20185;-76
2022/12/31 11:16:01;;;;;;;48.15;34.10;;;;;;;24.75;34.05;95877.81;5062721;28;20250;-76
2022/12/31 11:18:36;;;;;;;45.88;34.00;;;;;;;24.61;34.17;95869.69;5067378;28;20200;-78
2022/12/31 11:21:16;;;;;;;56.35;37.58;;;;;;;24.59;34.08;95869.16;5078660;28;20220;-75
2022/12/31 11:23:54;;;;;;;55.05;36.17;;;;;;;25.00;33.56;95869.69;5080000;28;20192;-77
2022/12/31 11:26:32;;;;;;;59.70;38.28;;;;;;;25.07;33.04;95864.03;5081744;28;20614;-76
2022/12/31 11:29:29;;;;;;;54.78;37.08;;;;;;;25.13;33.13;95850.44;5077582;28;20196;-76
2022/12/31 11:32:23;;;;;;;52.72;38.25;;;;;;;24.89;33.96;95862.06;5078909;28;20216;-76
2022/12/31 11:35:11;;;;;;;54.22;36.90;;;;;;;25.32;32.99;95864.63;5081919;28;20203;-79
2022/12/31 11:37:45;;;;;;;53.72;37.67;;;;;;;25.12;33.51;95866.66;5070742;28;20185;-79
2022/12/31 11:40:52;;;;;;;53.05;37.25;;;;;;;25.33;32.96;95857.44;5080819;28;20227;-77
2022/12/31 11:43:27;;;;;;;57.30;38.67;;;;;;;25.54;32.34;95845.50;5080171;28;20195;-78
2022/12/31 11:46:26;;;;;;;56.08;39.63;;;;;;;25.66;32.18;95847.78;5081413;28;20191;-78
2022/12/31 11:49:12;;;;;;;62.50;41.25;;;;;;;25.52;32.35;95845.00;5078921;28;20575;-78
2022/12/31 11:51:50;;;;;;;63.67;41.28;;;;;;;25.37;32.09;95843.25;5080720;28;20208;-79
2022/12/31 11:54:43;;;;;;;58.33;41.28;;;;;;;25.18;32.97;95842.38;5081621;28;20861;-77
2022/12/31 11:57:20;;;;;;;66.22;43.05;;;;;;;24.80;34.30;95841.38;5084226;28;20258;-78
2022/12/31 11:59:47;;;;;;;59.03;40.85;;;;;;;24.76;34.12;95844.84;5080763;28;20683;-78